Time;durP1;ratioP1;P1;durP2;ratioP2;P2;SDS_P1;SDS_P2;PMS_P1;PMS_P2;Temp;Humidity;BMP_temperature;BMP_pressure;BME280_temperature;BME280_humidity;BME280_pressure;Samples;Min_cycle;Max_cycle;Signal;HPM_P1;HPM_P2
2021/09/18 00:01:34;;;;;;;5.68;5.13;;;;;;;3.10;87.90;100640.22;5051524;28;20064;-75
2021/09/18 00:04:23;;;;;;;6.50;4.88;;;;;;;3.13;87.64;100637.59;5050648;28;20055;-74
2021/09/18 00:07:09;;;;;;;6.47;6.05;;;;;;;3.10;87.83;100640.22;5051771;28;20041;-73
2021/09/18 00:10:01;;;;;;;7.28;4.82;;;;;;;3.09;87.82;100635.91;5037247;28;20129;-73
2021/09/18 00:12:48;;;;;;;4.45;4.15;;;;;;;3.14;87.37;100638.44;5051722;28;20064;-72
2021/09/18 00:15:39;;;;;;;4.57;4.18;;;;;;;3.21;87.58;100636.66;5038271;28;20115;-73
2021/09/18 00:18:29;;;;;;;5.68;5.22;;;;;;;2.92;87.23;100611.19;5051319;28;20055;-74
2021/09/18 00:51:49;;;;;;;4.30;3.97;;;;;;;2.80;88.02;100650.88;5044234;28;20115;-71
2021/09/18 00:54:35;;;;;;;;;;;;;;;2.71;88.00;100653.53;5048484;28;20053;-72
2021/09/18 00:57:21;;;;;;;7.40;5.15;;;;;;;2.65;87.86;100655.31;5050267;28;20263;-75
2021/09/18 01:00:13;;;;;;;7.57;6.75;;;;;;;2.60;87.91;100653.63;5049864;28;20423;-74
2021/09/18 01:03:17;;;;;;;7.80;7.25;;;;;;;2.57;88.25;100665.69;5070630;28;20075;-73
2021/09/18 01:06:10;;;;;;;4.80;4.50;;;;;;;2.43;88.50;100660.66;5071005;28;20041;-73
2021/09/18 01:08:59;;;;;;;6.72;4.03;;;;;;;2.43;88.57;100665.81;5056054;28;20105;-72
2021/09/18 01:11:50;;;;;;;8.82;8.07;;;;;;;2.38;88.45;100661.59;5070162;28;20056;-72
2021/09/18 01:14:42;;;;;;;7.53;6.95;;;;;;;2.35;88.80;100669.34;5055844;28;20045;-73
2021/09/18 01:17:28;;;;;;;;;;;;;;;2.37;89.03;100672.75;5070567;28;20118;-73
2021/09/18 01:20:14;;;;;;;8.77;5.15;;;;;;;2.34;88.63;100672.78;5070075;28;19950;-73
2021/09/18 01:23:01;;;;;;;6.78;6.25;;;;;;;2.29;88.91;100675.38;5068472;28;20051;-72
2021/09/18 01:25:47;;;;;;;6.00;5.55;;;;;;;2.29;88.79;100671.97;5069757;28;20404;-72
2021/09/18 01:28:34;;;;;;;3.67;3.47;;;;;;;2.29;89.02;100674.56;5068922;28;20060;-74
2021/09/18 01:31:20;;;;;;;2.90;2.80;;;;;;;2.24;89.11;100668.56;5069832;28;20041;-71
2021/09/18 01:34:07;;;;;;;4.35;3.22;;;;;;;2.24;88.71;100677.16;5054590;28;20044;-73
2021/09/18 01:37:06;;;;;;;3.28;2.35;;;;;;;2.19;88.81;100675.47;5069622;28;20485;-73
2021/09/18 01:40:07;;;;;;;4.18;3.78;;;;;;;2.19;89.04;100672.91;5057907;28;20056;-76
2021/09/18 01:43:23;;;;;;;1.85;1.15;;;;;;;2.15;88.55;100676.38;5069179;28;20049;-75
2021/09/18 01:46:11;;;;;;;2.75;2.65;;;;;;;2.06;88.53;100657.53;5068264;28;20504;-73
2021/09/18 01:48:58;;;;;;;3.88;3.47;;;;;;;2.29;88.46;100679.69;5054540;28;20048;-72
2021/09/18 01:54:59;;;;;;;6.07;3.15;;;;;;;2.19;88.43;100678.06;5068502;28;20056;-72
2021/09/18 01:57:46;;;;;;;3.05;2.85;;;;;;;2.12;88.73;100673.81;5073672;28;20154;-74
2021/09/18 02:00:35;;;;;;;1.65;1.65;;;;;;;2.14;88.72;100685.81;5072243;28;20530;-72
2021/09/18 02:03:21;;;;;;;2.38;2.28;;;;;;;2.11;88.49;100685.84;5073590;28;20048;-72
2021/09/18 02:06:07;;;;;;;3.45;3.20;;;;;;;2.01;88.87;100687.63;5058087;28;20051;-71
2021/09/18 02:08:52;;;;;;;3.42;2.92;;;;;;;1.94;88.93;100692.81;5071865;28;20090;-73
2021/09/18 02:11:38;;;;;;;4.57;1.83;;;;;;;1.86;88.90;100685.16;5073519;28;20044;-71
2021/09/18 02:14:30;;;;;;;2.30;2.17;;;;;;;1.85;89.06;100682.59;5073186;28;20083;-72
2021/09/18 02:17:16;;;;;;;5.25;3.97;;;;;;;1.79;89.02;100680.91;5073274;28;20110;-73
2021/09/18 02:20:06;;;;;;;3.10;3.00;;;;;;;1.81;89.02;100696.31;5072748;28;20045;-72
2021/09/18 02:23:25;;;;;;;1.77;1.67;;;;;;;1.84;89.52;100688.59;5044539;28;20166;-73
2021/09/18 02:26:12;;;;;;;4.38;4.07;;;;;;;1.79;89.52;100683.47;5046425;28;20044;-72
2021/09/18 02:28:38;;;;;;;2.33;2.22;;;;;;;1.80;89.49;100690.31;5054976;28;20051;-72
2021/09/18 02:31:04;;;;;;;2.38;2.28;;;;;;;1.80;89.53;100689.50;5051933;28;20048;-72
2021/09/18 02:33:31;;;;;;;5.50;2.08;;;;;;;1.86;89.41;100700.59;5073159;28;20485;-72
2021/09/18 02:35:57;;;;;;;2.13;2.03;;;;;;;1.84;89.26;100694.59;5038482;28;20083;-70
2021/09/18 02:38:23;;;;;;;3.03;2.83;;;;;;;1.80;89.30;100703.19;5073526;28;20052;-72
2021/09/18 02:40:52;;;;;;;2.92;2.75;;;;;;;1.82;89.14;100709.19;5057658;28;20122;-73
2021/09/18 02:43:18;;;;;;;2.30;1.60;;;;;;;1.73;88.99;100703.25;5056373;28;20132;-72
2021/09/18 02:45:44;;;;;;;2.40;2.28;;;;;;;1.72;89.30;100697.25;5073002;28;20538;-73
2021/09/18 02:48:10;;;;;;;3.13;2.92;;;;;;;1.74;89.36;100703.22;5072486;28;20117;-72
2021/09/18 02:50:36;;;;;;;2.13;1.98;;;;;;;1.77;89.24;100713.50;5055056;28;20162;-72
2021/09/18 02:53:03;;;;;;;3.97;2.60;;;;;;;1.76;89.30;100713.53;5050765;28;20515;-72
2021/09/18 02:55:29;;;;;;;2.95;2.75;;;;;;;1.79;89.24;100714.38;5051450;28;20108;-72
2021/09/18 02:57:55;;;;;;;1.88;1.88;;;;;;;1.81;89.22;100702.34;5067617;28;20052;-73
2021/09/18 03:00:21;;;;;;;8.20;2.47;;;;;;;1.80;88.92;100708.34;5051798;28;20463;-75
2021/09/18 03:02:49;;;;;;;1.70;1.70;;;;;;;1.79;88.90;100708.38;5052266;28;20140;-73
2021/09/18 03:05:15;;;;;;;2.85;2.75;;;;;;;1.82;88.87;100714.34;5050353;28;20546;-72
2021/09/18 03:07:51;;;;;;;2.53;2.42;;;;;;;1.74;88.63;100716.09;5052441;28;20587;-72
2021/09/18 03:10:17;;;;;;;2.30;2.20;;;;;;;1.83;88.69;100725.50;5051673;28;20072;-73
2021/09/18 03:12:46;;;;;;;2.35;2.28;;;;;;;1.80;88.64;100730.66;5051310;28;20036;-73
2021/09/18 03:15:12;;;;;;;3.20;3.10;;;;;;;1.80;88.51;100728.09;5052743;28;20067;-73
2021/09/18 03:17:38;;;;;;;2.10;2.03;;;;;;;1.79;88.46;100724.66;5053292;28;20138;-74
2021/09/18 03:20:05;;;;;;;3.22;3.03;;;;;;;1.81;88.63;100732.34;5050544;28;20052;-73
2021/09/18 03:22:31;;;;;;;2.92;2.75;;;;;;;1.83;88.41;100735.81;5050994;28;20055;-74
2021/09/18 03:25:00;;;;;;;4.15;3.28;;;;;;;1.85;88.15;100723.75;5050739;28;20487;-72
2021/09/18 03:27:26;;;;;;;2.75;2.60;;;;;;;1.87;88.22;100733.19;5052015;28;20124;-75
2021/09/18 03:30:02;;;;;;;3.00;2.80;;;;;;;1.88;88.02;100734.91;5051370;28;20064;-76
2021/09/18 03:32:30;;;;;;;2.05;1.95;;;;;;;1.91;87.77;100734.88;5051201;28;20055;-72
2021/09/18 03:34:58;;;;;;;6.10;2.90;;;;;;;1.88;87.79;100727.19;5050167;28;20144;-74
2021/09/18 03:37:24;;;;;;;3.17;2.88;;;;;;;1.94;87.99;100729.72;5051507;28;20048;-73
2021/09/18 03:39:50;;;;;;;2.75;1.85;;;;;;;2.17;87.50;100727.00;5051653;28;20064;-73
2021/09/18 03:42:16;;;;;;;1.75;1.65;;;;;;;2.75;85.50;100732.53;5051094;28;20080;-73
2021/09/18 03:44:42;;;;;;;2.70;2.60;;;;;;;2.92;83.14;100728.06;5051296;28;20045;-72
2021/09/18 03:47:08;;;;;;;2.58;1.98;;;;;;;3.23;81.68;100751.00;5065956;28;20106;-72
2021/09/18 03:49:34;;;;;;;1.95;1.85;;;;;;;3.58;80.23;100733.38;5066514;28;20471;-73
2021/09/18 03:52:00;;;;;;;2.90;2.55;;;;;;;3.68;80.17;100750.44;5050544;28;20052;-73
2021/09/18 03:54:26;;;;;;;1.90;1.80;;;;;;;4.08;78.20;100743.03;5051208;28;20057;-74
2021/09/18 03:56:52;;;;;;;2.47;2.38;;;;;;;4.02;78.26;100740.53;5050710;28;20046;-72
2021/09/18 03:59:18;;;;;;;2.97;2.78;;;;;;;3.77;78.65;100757.22;5049429;28;20080;-73
2021/09/18 04:01:44;;;;;;;3.03;2.13;;;;;;;3.50;79.71;100748.13;5049693;28;20041;-73
2021/09/18 04:04:10;;;;;;;4.15;3.78;;;;;;;3.63;79.20;100755.66;5049474;28;20057;-75
2021/09/18 04:06:36;;;;;;;3.50;3.22;;;;;;;4.34;76.87;100751.25;5051281;28;20044;-74
2021/09/18 04:09:02;;;;;;;2.63;2.53;;;;;;;4.54;75.74;100756.97;5050332;28;20077;-75
2021/09/18 04:11:28;;;;;;;2.40;2.20;;;;;;;4.72;74.87;100750.63;5050948;28;20128;-74
2021/09/18 04:14:46;;;;;;;2.65;2.42;;;;;;;4.84;75.06;100758.22;5049739;28;20396;-74
2021/09/18 04:17:31;;;;;;;2.78;2.55;;;;;;;4.02;77.31;100766.38;5040223;28;20509;-74
2021/09/18 04:20:19;;;;;;;3.13;2.80;;;;;;;4.41;76.37;100741.69;5033534;28;20361;-73
2021/09/18 04:23:44;;;;;;;2.47;2.38;;;;;;;4.42;76.59;100770.06;5013072;28;20049;-72
2021/09/18 04:29:47;;;;;;;2.00;2.00;;;;;;;4.59;76.08;100769.81;5029603;28;20452;-74
2021/09/18 04:32:13;;;;;;;2.67;2.58;;;;;;;4.80;74.38;100759.13;5030629;28;20045;-72
2021/09/18 04:34:38;;;;;;;2.10;2.00;;;;;;;4.83;75.04;100753.91;5030389;28;20076;-73
2021/09/18 04:37:04;;;;;;;2.13;2.08;;;;;;;5.68;72.52;100767.84;5029827;28;20056;-72
2021/09/18 04:39:30;;;;;;;1.90;1.70;;;;;;;6.44;69.51;100756.69;5030147;28;20049;-71
2021/09/18 04:41:56;;;;;;;3.15;2.92;;;;;;;5.86;70.47;100761.47;5030326;28;20433;-73
2021/09/18 04:44:22;;;;;;;1.33;1.33;;;;;;;6.40;69.07;100764.56;5028929;28;20045;-72
2021/09/18 04:47:20;;;;;;;1.67;1.67;;;;;;;6.65;67.74;100755.31;5045996;28;20139;-73
2021/09/18 04:49:49;;;;;;;7.57;2.15;;;;;;;6.62;67.99;100758.84;5024164;28;20057;-72
2021/09/18 04:52:15;;;;;;;2.17;2.08;;;;;;;7.49;64.86;100759.19;5049983;28;20076;-72
2021/09/18 04:54:41;;;;;;;2.30;2.20;;;;;;;6.28;69.31;100761.34;5050161;28;20059;-71
2021/09/18 04:57:10;;;;;;;2.50;2.40;;;;;;;6.43;68.14;100769.69;5049731;28;20049;-73
2021/09/18 04:59:48;;;;;;;2.35;2.25;;;;;;;6.74;67.30;100765.50;5050597;28;20052;-74
2021/09/18 05:02:40;;;;;;;2.20;2.10;;;;;;;7.34;65.49;100773.44;5048461;28;20139;-72
2021/09/18 05:05:12;;;;;;;2.00;1.83;;;;;;;7.78;63.85;100770.47;5048569;28;20163;-75
2021/09/18 05:07:38;;;;;;;1.90;1.80;;;;;;;7.37;64.73;100767.28;5050756;28;20060;-72
2021/09/18 05:10:05;;;;;;;5.40;2.10;;;;;;;8.09;63.16;100760.00;5049517;28;20045;-71
2021/09/18 05:12:31;;;;;;;3.95;3.75;;;;;;;6.87;66.92;100760.84;5049720;28;20049;-71
2021/09/18 05:14:57;;;;;;;3.17;2.97;;;;;;;6.96;66.62;100765.78;5032040;28;20140;-71
2021/09/18 05:17:23;;;;;;;8.88;3.78;;;;;;;6.56;69.03;100771.09;5048589;28;20049;-73
2021/09/18 05:19:49;;;;;;;4.78;3.72;;;;;;;7.35;66.26;100756.97;5049801;28;20551;-71
2021/09/18 05:22:15;;;;;;;2.53;2.42;;;;;;;7.64;64.46;100767.41;5047994;28;20088;-71
2021/09/18 05:24:41;;;;;;;2.03;1.92;;;;;;;7.04;67.18;100753.44;5049694;28;20523;-72
2021/09/18 05:27:07;;;;;;;13.90;2.08;;;;;;;7.08;66.82;100765.47;5048677;28;20049;-71
2021/09/18 05:29:33;;;;;;;3.33;2.40;;;;;;;7.72;64.85;100756.78;5048384;28;20052;-71
2021/09/18 05:31:59;;;;;;;4.15;3.05;;;;;;;8.00;64.13;100773.28;5048130;28;20053;-71
2021/09/18 05:35:07;;;;;;;1.45;1.45;;;;;;;7.54;66.25;100765.94;5049939;28;20475;-72
2021/09/18 05:38:22;;;;;;;3.42;2.75;;;;;;;8.15;64.11;100761.53;5030191;28;20464;-71
2021/09/18 05:40:48;;;;;;;2.47;2.38;;;;;;;7.29;66.52;100778.75;5048493;28;20119;-71
2021/09/18 05:43:14;;;;;;;2.40;2.30;;;;;;;7.62;65.84;100778.72;5031585;28;20072;-71
2021/09/18 05:45:40;;;;;;;2.08;1.98;;;;;;;7.15;66.42;100783.47;5048086;28;20148;-72
2021/09/18 05:48:06;;;;;;;0.98;0.98;;;;;;;7.85;64.83;100787.56;5048382;28;21216;-72
2021/09/18 05:50:33;;;;;;;2.00;1.92;;;;;;;8.79;60.97;100774.28;5044437;28;20067;-70
2021/09/18 05:52:59;;;;;;;1.40;1.40;;;;;;;8.96;61.00;100785.91;5060797;28;20040;-70
2021/09/18 05:55:25;;;;;;;1.85;1.85;;;;;;;8.02;63.52;100781.88;5069051;28;20482;-71
2021/09/18 05:57:51;;;;;;;1.98;1.88;;;;;;;8.66;62.50;100777.34;5051230;28;20126;-71
2021/09/18 06:00:17;;;;;;;1.50;1.50;;;;;;;8.27;64.08;100772.47;5068997;28;20044;-71
2021/09/18 06:02:43;;;;;;;2.40;2.30;;;;;;;7.80;63.90;100775.59;5069106;28;20512;-70
2021/09/18 06:05:10;;;;;;;2.97;1.95;;;;;;;7.65;65.57;100781.25;5067687;28;20158;-72
2021/09/18 06:07:36;;;;;;;3.08;2.88;;;;;;;7.85;64.73;100784.97;5069106;28;20044;-71
2021/09/18 06:10:03;;;;;;;4.85;3.35;;;;;;;7.63;65.63;100768.28;5068646;28;20165;-72
2021/09/18 06:12:35;;;;;;;1.13;1.13;;;;;;;8.45;63.23;100775.41;5050853;28;20040;-71
2021/09/18 06:15:01;;;;;;;2.08;1.98;;;;;;;8.55;62.30;100772.47;5068859;28;20056;-71
2021/09/18 06:17:28;;;;;;;1.25;1.25;;;;;;;8.30;63.43;100775.00;5050352;28;20076;-73
2021/09/18 06:19:54;;;;;;;1.13;1.13;;;;;;;8.60;63.00;100774.94;5049403;28;20121;-73
2021/09/18 06:22:20;;;;;;;11.07;1.67;;;;;;;9.49;59.38;100782.28;5063130;28;20454;-74
2021/09/18 06:24:48;;;;;;;1.50;1.50;;;;;;;9.32;59.88;100782.03;5067191;28;20060;-73
2021/09/18 06:27:21;;;;;;;1.30;1.30;;;;;;;9.63;58.28;100781.78;5058575;28;20097;-78
2021/09/18 06:29:47;;;;;;;1.48;1.48;;;;;;;10.01;58.53;100776.03;5067477;28;20040;-74
2021/09/18 06:32:38;;;;;;;0.93;0.93;;;;;;;8.95;61.56;100779.84;5049070;28;20106;-73
2021/09/18 06:45:31;;;;;;;1.90;1.83;;;;;;;10.55;56.25;100777.44;4971921;28;20086;-74
2021/09/18 06:47:57;;;;;;;1.23;1.23;;;;;;;9.60;58.05;100784.50;5038554;28;20045;-73
2021/09/18 06:50:23;;;;;;;1.13;1.13;;;;;;;9.73;57.45;100793.59;5049725;28;20446;-74
2021/09/18 06:52:48;;;;;;;4.43;1.63;;;;;;;9.18;58.97;100785.13;5070606;28;20110;-73
2021/09/18 06:55:14;;;;;;;1.48;1.48;;;;;;;9.47;59.10;100793.69;5071657;28;20087;-73
2021/09/18 06:57:43;;;;;;;1.70;1.60;;;;;;;9.79;57.57;100801.19;5071040;28;20072;-71
2021/09/18 07:00:19;;;;;;;1.13;1.13;;;;;;;10.15;56.84;100783.34;5053709;28;20052;-73
2021/09/18 07:02:45;;;;;;;1.40;1.30;;;;;;;10.88;53.21;100789.13;5056061;28;20147;-75
2021/09/18 07:05:11;;;;;;;2.15;1.60;;;;;;;10.44;55.78;100807.41;5053956;28;20139;-74
2021/09/18 07:07:37;;;;;;;1.13;1.13;;;;;;;10.52;54.07;100796.69;5057579;28;20052;-71
2021/09/18 07:10:07;;;;;;;1.40;1.40;;;;;;;11.40;52.93;100791.25;5054404;28;20041;-75
2021/09/18 07:20:00;;;;;;;1.13;1.13;;;;;;;11.27;51.70;100779.63;5035769;28;20047;-76
2021/09/18 07:22:26;;;;;;;1.15;1.13;;;;;;;12.62;48.07;100776.06;5052153;28;20047;-75
2021/09/18 07:24:55;;;;;;;1.05;1.05;;;;;;;12.42;47.90;100774.41;5053232;28;20465;-75
2021/09/18 07:27:21;;;;;;;4.68;1.83;;;;;;;11.08;51.80;100768.25;5070299;28;20049;-78
2021/09/18 07:29:47;;;;;;;1.10;1.10;;;;;;;10.32;54.12;100773.97;5056051;28;20102;-75
2021/09/18 07:32:36;;;;;;;1.92;1.85;;;;;;;11.37;50.19;100756.53;5054066;28;20053;-75
2021/09/18 07:35:24;;;;;;;1.15;1.15;;;;;;;10.81;52.41;100759.81;5053673;28;20075;-76
2021/09/18 07:37:51;;;;;;;1.50;1.50;;;;;;;11.38;50.57;100738.19;5031954;28;20567;-73
2021/09/18 07:40:20;;;;;;;1.02;1.02;;;;;;;10.81;51.25;100769.41;5046829;28;20068;-75
2021/09/18 07:42:46;;;;;;;0.80;0.80;;;;;;;10.04;52.34;100765.50;5032445;28;20574;-73
2021/09/18 07:45:12;;;;;;;0.80;0.80;;;;;;;10.96;50.22;100766.16;5049829;28;20049;-73
2021/09/18 07:47:40;;;;;;;1.08;1.08;;;;;;;10.41;51.32;100764.91;5050073;28;20134;-74
2021/09/18 07:50:06;;;;;;;13.05;1.40;;;;;;;11.40;47.66;100757.25;5032044;28;20045;-76
2021/09/18 07:52:50;;;;;;;0.75;0.75;;;;;;;10.58;51.35;100756.41;5029384;28;20056;-76
2021/09/18 07:55:34;;;;;;;0.60;0.60;;;;;;;10.51;50.17;100744.53;5039263;28;20120;-74
2021/09/18 07:58:01;;;;;;;0.77;0.77;;;;;;;11.40;47.59;100752.03;5047985;28;20048;-76
2021/09/18 08:00:27;;;;;;;0.98;0.98;;;;;;;11.70;47.59;100751.59;5046664;28;20049;-75
2021/09/18 08:02:55;;;;;;;1.33;1.33;;;;;;;12.34;45.35;100721.53;5049572;28;20482;-76
2021/09/18 08:05:22;;;;;;;0.90;0.90;;;;;;;10.45;50.94;100756.06;5048837;28;20459;-74
2021/09/18 08:07:49;;;;;;;1.15;1.15;;;;;;;10.41;51.56;100750.13;5049064;28;20049;-73
2021/09/18 08:10:18;;;;;;;1.88;1.27;;;;;;;10.85;48.95;100743.09;5032893;28;20044;-73
2021/09/18 08:12:48;;;;;;;0.98;0.98;;;;;;;11.28;47.50;100749.97;5050394;28;20199;-74
2021/09/18 08:15:14;;;;;;;1.60;1.27;;;;;;;12.66;44.04;100747.94;5050993;28;20492;-76
2021/09/18 08:17:41;;;;;;;0.70;0.70;;;;;;;12.55;45.08;100740.59;5049646;28;20040;-75
2021/09/18 08:20:08;;;;;;;1.08;1.08;;;;;;;13.94;42.02;100745.63;5051456;28;20049;-72
2021/09/18 08:22:39;;;;;;;1.30;0.82;;;;;;;11.06;47.30;100758.78;5069075;28;20055;-75
2021/09/18 08:25:07;;;;;;;1.33;1.33;;;;;;;12.61;44.56;100748.16;5069574;28;20071;-73
2021/09/18 08:27:33;;;;;;;1.55;1.45;;;;;;;12.06;46.22;100744.72;5051662;28;20051;-74
2021/09/18 08:29:59;;;;;;;1.50;1.40;;;;;;;11.70;47.44;100754.22;5051230;28;20053;-74
2021/09/18 08:32:25;;;;;;;1.20;1.10;;;;;;;11.72;46.03;100739.31;5052824;28;20060;-73
2021/09/18 08:34:54;;;;;;;1.55;1.50;;;;;;;11.11;47.66;100742.00;5049438;28;20055;-74
2021/09/18 08:37:20;;;;;;;1.00;1.00;;;;;;;11.85;46.37;100745.69;5015711;28;20607;-73
2021/09/18 08:39:46;;;;;;;0.90;0.90;;;;;;;13.67;42.50;100741.88;5050707;28;20056;-73
2021/09/18 08:42:13;;;;;;;1.05;1.05;;;;;;;12.87;42.77;100734.63;5065813;28;20049;-72
2021/09/18 08:44:39;;;;;;;3.67;1.10;;;;;;;11.61;46.71;100741.53;5034202;28;20555;-74
2021/09/18 08:47:05;;;;;;;1.13;1.10;;;;;;;11.39;47.63;100737.25;5052064;28;20057;-74
2021/09/18 08:50:07;;;;;;;1.20;1.20;;;;;;;11.12;47.40;100737.63;5033875;28;20126;-76
2021/09/18 08:53:21;;;;;;;1.30;1.30;;;;;;;10.84;49.12;100723.09;5037632;28;20064;-78
2021/09/18 08:55:53;;;;;;;1.20;1.20;;;;;;;11.91;45.16;100724.50;5048495;28;20049;-77
2021/09/18 08:58:20;;;;;;;0.80;0.80;;;;;;;10.65;48.45;100726.53;5032993;28;20081;-76
2021/09/18 09:00:53;;;;;;;0.40;0.40;;;;;;;10.87;49.36;100722.13;5050853;28;20056;-75
2021/09/18 09:03:27;;;;;;;1.48;1.38;;;;;;;10.24;51.00;100742.09;5049171;28;20057;-77
2021/09/18 09:06:04;;;;;;;1.23;1.05;;;;;;;10.51;50.18;100740.16;5050719;28;20053;-74
2021/09/18 09:08:33;;;;;;;1.25;1.23;;;;;;;10.39;51.39;100730.22;5048723;28;20045;-76
2021/09/18 09:11:29;;;;;;;0.65;0.65;;;;;;;10.26;51.71;100727.25;5055284;28;20056;-76
2021/09/18 09:14:41;;;;;;;1.42;1.42;;;;;;;10.00;53.28;100734.34;5052661;28;20405;-76
2021/09/18 09:17:08;;;;;;;1.05;1.05;;;;;;;10.00;52.36;100739.56;5070189;28;20055;-72
2021/09/18 09:19:38;;;;;;;1.20;1.20;;;;;;;9.67;52.86;100728.63;5069545;28;20098;-72
2021/09/18 09:22:04;;;;;;;1.15;1.15;;;;;;;9.80;52.23;100730.75;5068235;28;20040;-73
2021/09/18 09:24:30;;;;;;;0.98;0.98;;;;;;;9.81;52.91;100734.19;5067387;28;20056;-73
2021/09/18 09:27:14;;;;;;;0.80;0.80;;;;;;;9.91;52.00;100727.72;5051889;28;20048;-77
2021/09/18 09:30:22;;;;;;;1.25;1.25;;;;;;;9.70;52.61;100728.53;5028735;28;20140;-75
2021/09/18 09:33:13;;;;;;;8.18;4.05;;;;;;;9.97;53.31;100716.22;5029054;28;20433;-72
2021/09/18 09:38:50;;;;;;;0.60;0.60;;;;;;;9.56;54.02;100746.41;5040661;28;20072;-73
2021/09/18 09:41:49;;;;;;;0.80;0.80;;;;;;;9.62;53.27;100730.59;5037535;28;20048;-76
2021/09/18 09:44:26;;;;;;;2.45;2.28;;;;;;;9.89;53.11;100730.38;5050295;28;20064;-74
2021/09/18 09:47:06;;;;;;;3.85;1.80;;;;;;;9.93;52.57;100736.34;5049808;28;20084;-73
2021/09/18 09:49:46;;;;;;;0.80;0.80;;;;;;;10.85;50.86;100726.56;5068941;28;20207;-73
2021/09/18 09:52:28;;;;;;;3.70;2.85;;;;;;;10.63;49.77;100724.00;5051563;28;20083;-76
2021/09/18 09:55:06;;;;;;;1.30;1.30;;;;;;;10.12;51.05;100731.25;5069561;28;20052;-72
2021/09/18 09:57:32;;;;;;;1.45;1.42;;;;;;;9.99;52.09;100730.88;5069944;28;20044;-72
2021/09/18 09:59:59;;;;;;;0.80;0.80;;;;;;;10.14;51.02;100746.00;5068489;28;20109;-72
2021/09/18 10:02:25;;;;;;;0.85;0.85;;;;;;;10.10;50.38;100735.69;5052469;28;20052;-73
2021/09/18 10:04:51;;;;;;;3.80;3.55;;;;;;;9.93;52.59;100731.13;5068124;28;20087;-73
2021/09/18 10:10:58;;;;;;;0.60;0.60;;;;;;;9.96;50.57;100741.44;5041947;28;20080;-73
2021/09/18 10:13:48;;;;;;;1.17;1.17;;;;;;;9.95;51.34;100730.16;5069078;28;20055;-73
2021/09/18 10:24:09;;;;;;;0.73;0.73;;;;;;;9.78;51.88;100747.34;4990317;28;20049;-76
2021/09/18 10:27:22;;;;;;;1.30;1.30;;;;;;;9.86;52.12;100745.28;5032128;28;20049;-75
2021/09/18 10:29:49;;;;;;;2.70;2.55;;;;;;;9.94;51.35;100706.75;5031652;28;20057;-73
2021/09/18 10:32:15;;;;;;;5.15;2.33;;;;;;;10.24;51.61;100734.25;5033222;28;20505;-71
2021/09/18 10:34:41;;;;;;;1.15;1.15;;;;;;;10.54;49.89;100715.66;5048157;28;20147;-72
2021/09/18 10:37:32;;;;;;;0.90;0.90;;;;;;;10.82;49.43;100748.44;5084575;28;20056;-74
2021/09/18 10:40:12;;;;;;;0.63;0.63;;;;;;;10.65;50.13;100745.66;5071009;28;20186;-73
2021/09/18 10:42:47;;;;;;;0.68;0.68;;;;;;;10.32;50.87;100742.66;5052499;28;20448;-74
2021/09/18 10:45:20;;;;;;;0.70;0.70;;;;;;;11.02;49.24;100737.16;5040068;28;20056;-75
2021/09/18 10:47:48;;;;;;;0.70;0.70;;;;;;;10.90;48.90;100738.50;5051345;28;20495;-76
2021/09/18 10:50:52;;;;;;;1.83;1.73;;;;;;;10.36;51.98;100759.06;5054429;28;20080;-75
2021/09/18 12:43:42;;;;;;;2.38;2.22;;;;;;;10.42;52.40;100683.09;6233404;22;20363;-71
2021/09/18 13:12:21;;;;;;;1.25;1.25;;;;;;;10.14;52.40;100693.81;6211075;22;20316;-71
2021/09/18 13:15:09;;;;;;;0.80;0.80;;;;;;;10.27;51.64;100684.59;5182778;27;20122;-71
2021/09/18 13:33:27;;;;;;;1.02;1.02;;;;;;;10.01;53.75;100665.63;6189200;23;20498;-76
2021/09/18 13:36:10;;;;;;;0.93;0.93;;;;;;;9.99;53.52;100683.06;5179924;27;20169;-76
2021/09/18 13:38:52;;;;;;;1.55;1.35;;;;;;;10.05;54.15;100661.97;5196697;27;20204;-77
2021/09/18 13:41:34;;;;;;;1.85;1.67;;;;;;;9.88;54.39;100666.09;5154447;27;20227;-71
2021/09/18 13:44:17;;;;;;;1.30;1.30;;;;;;;9.92;54.42;100666.81;5147154;27;20641;-75
2021/09/18 16:32:39;;;;;;;0.77;0.77;;;;;;;7.19;65.38;100685.56;6203134;23;20025;-73
2021/09/18 21:17:29;;;;;;;1.10;1.10;;;;;;;5.43;70.31;100725.19;6228451;23;20025;-70
2021/09/18 21:19:55;;;;;;;1.30;1.27;;;;;;;5.41;70.36;100721.78;6181921;23;20461;-70
2021/09/18 21:22:48;;;;;;;0.75;0.75;;;;;;;5.38;69.82;100720.09;6182910;23;20021;-72
2021/09/18 21:25:40;;;;;;;0.77;0.77;;;;;;;5.39;69.85;100726.13;6182415;23;20462;-75
2021/09/18 21:28:22;;;;;;;1.15;1.15;;;;;;;5.31;69.75;100704.72;6136370;23;20021;-71
2021/09/18 21:30:47;;;;;;;1.75;1.65;;;;;;;5.44;69.78;100730.34;6182706;23;20021;-73
2021/09/18 21:33:14;;;;;;;2.17;1.98;;;;;;;5.41;69.63;100721.78;6182067;23;20021;-71
2021/09/18 21:35:40;;;;;;;1.20;1.20;;;;;;;5.46;69.04;100730.31;6182830;23;20483;-71
2021/09/18 21:38:06;;;;;;;1.20;1.20;;;;;;;5.43;69.26;100715.66;6181511;23;20017;-72
2021/09/18 21:40:32;;;;;;;1.65;1.58;;;;;;;5.43;68.85;100722.63;6181240;23;20044;-72
2021/09/18 21:42:58;;;;;;;1.33;1.33;;;;;;;5.39;69.23;100724.41;6183291;23;20017;-71
2021/09/18 21:45:24;;;;;;;0.80;0.80;;;;;;;5.42;69.17;100721.75;6181615;23;20100;-73
2021/09/18 21:47:52;;;;;;;2.03;1.95;;;;;;;5.43;68.78;100727.78;6182623;23;20112;-71
2021/09/18 21:50:18;;;;;;;2.03;1.88;;;;;;;5.47;69.19;100732.00;6182937;23;20024;-71
2021/09/18 21:52:44;;;;;;;0.95;0.95;;;;;;;5.44;69.10;100719.13;6182569;23;20016;-71
2021/09/18 21:55:10;;;;;;;1.55;1.55;;;;;;;5.47;68.92;100722.50;6180821;23;20021;-70
2021/09/18 21:57:37;;;;;;;4.80;1.98;;;;;;;5.47;68.51;100713.88;6182576;23;20074;-69
2021/09/18 22:00:08;;;;;;;2.33;2.25;;;;;;;5.45;69.08;100723.41;6182489;23;20453;-70
2021/09/18 22:02:34;;;;;;;1.60;1.60;;;;;;;5.42;68.75;100734.69;6182616;23;20063;-72
2021/09/18 22:05:00;;;;;;;1.38;1.33;;;;;;;5.44;68.80;100742.41;6182700;23;20009;-71
2021/09/18 22:07:30;;;;;;;1.60;1.60;;;;;;;5.42;69.51;100731.25;6182820;23;20361;-70
2021/09/18 22:09:57;;;;;;;1.50;1.50;;;;;;;5.38;69.23;100727.00;6182748;23;20051;-69
2021/09/18 22:12:26;;;;;;;1.55;1.52;;;;;;;5.41;68.94;100719.19;6156525;23;20298;-71
2021/09/18 22:14:52;;;;;;;1.00;1.00;;;;;;;5.41;69.06;100732.13;6156101;23;20029;-69
2021/09/18 22:17:18;;;;;;;1.35;1.35;;;;;;;5.36;68.98;100713.25;6183369;23;20124;-71
2021/09/18 22:19:44;;;;;;;2.00;1.90;;;;;;;5.43;69.08;100720.84;6212435;23;20020;-73
2021/09/18 22:22:10;;;;;;;1.13;1.13;;;;;;;5.42;68.82;100723.50;6212544;23;20021;-72
2021/09/18 22:24:36;;;;;;;1.33;1.33;;;;;;;5.43;69.29;100714.84;6185827;23;20023;-72
2021/09/18 22:27:02;;;;;;;1.35;1.35;;;;;;;5.42;68.70;100716.56;6186028;23;20364;-72
2021/09/18 22:29:28;;;;;;;1.10;1.10;;;;;;;5.44;69.01;100721.72;6186232;23;20452;-72
2021/09/18 22:31:55;;;;;;;1.02;1.02;;;;;;;5.38;69.06;100720.09;6186245;23;20023;-71
2021/09/18 22:34:21;;;;;;;1.88;1.77;;;;;;;5.43;68.54;100714.84;6161271;23;20020;-71
2021/09/18 22:36:47;;;;;;;1.42;1.42;;;;;;;5.42;68.91;100718.31;6212364;23;20025;-71
2021/09/18 22:39:13;;;;;;;1.33;1.33;;;;;;;5.44;68.72;100730.34;6186384;23;20020;-71
2021/09/18 22:41:39;;;;;;;1.75;1.65;;;;;;;5.43;68.18;100709.66;6185881;23;20027;-71
2021/09/18 22:44:05;;;;;;;1.83;1.73;;;;;;;5.44;68.58;100719.97;6212571;23;20020;-70
2021/09/18 22:46:31;;;;;;;0.82;0.82;;;;;;;5.41;68.27;100701.06;6212119;23;20099;-71
2021/09/18 22:48:57;;;;;;;1.90;1.80;;;;;;;5.43;68.45;100714.84;6185694;23;20467;-70
2021/09/18 22:51:23;;;;;;;1.27;1.27;;;;;;;5.44;67.84;100709.63;6212280;23;20020;-72
2021/09/18 22:53:49;;;;;;;1.67;1.58;;;;;;;5.44;68.72;100716.53;6212178;23;20028;-71
2021/09/18 22:56:15;;;;;;;2.50;2.40;;;;;;;5.41;68.49;100707.09;6185771;23;20020;-71
2021/09/18 22:58:41;;;;;;;1.55;1.55;;;;;;;5.41;68.00;100707.09;6185661;23;20044;-71
2021/09/18 23:01:08;;;;;;;1.30;1.30;;;;;;;5.46;67.78;100699.25;6212192;23;20024;-72
2021/09/18 23:03:34;;;;;;;1.60;1.60;;;;;;;5.54;67.16;100712.88;6160965;23;20021;-74
2021/09/18 23:06:01;;;;;;;2.20;2.10;;;;;;;5.54;67.23;100694.75;6212671;23;20052;-71
2021/09/18 23:08:27;;;;;;;1.38;1.38;;;;;;;5.50;67.18;100698.28;6161055;23;20135;-72
2021/09/18 23:10:53;;;;;;;1.20;1.20;;;;;;;5.52;66.90;100693.94;6211524;23;20095;-70
2021/09/18 23:13:19;;;;;;;1.75;1.65;;;;;;;5.56;67.22;100693.00;6160982;23;20016;-71